sensor_id;sensor_type;location;lat;lon;timestamp;temperature;humidity
67598;DHT22;62026;39.230;9.122;2023-03-23T00:00:01;14.70;66.40
67598;DHT22;62026;39.230;9.122;2023-03-23T00:02:36;14.70;66.40
67598;DHT22;62026;39.230;9.122;2023-03-23T00:05:04;14.60;66.50
67598;DHT22;62026;39.230;9.122;2023-03-23T00:07:33;14.70;66.40
67598;DHT22;62026;39.230;9.122;2023-03-23T00:10:00;14.60;66.30
67598;DHT22;62026;39.230;9.122;2023-03-23T00:12:29;14.60;66.40
67598;DHT22;62026;39.230;9.122;2023-03-23T00:15:06;14.60;66.40
67598;DHT22;62026;39.230;9.122;2023-03-23T00:17:34;14.60;66.50
67598;DHT22;62026;39.230;9.122;2023-03-23T00:20:03;14.60;66.40
67598;DHT22;62026;39.230;9.122;2023-03-23T00:22:31;14.50;66.40
67598;DHT22;62026;39.230;9.122;2023-03-23T00:25:04;14.50;66.40
67598;DHT22;62026;39.230;9.122;2023-03-23T00:27:31;14.50;66.30
67598;DHT22;62026;39.230;9.122;2023-03-23T00:29:57;14.50;66.30
67598;DHT22;62026;39.230;9.122;2023-03-23T00:32:24;14.50;66.30
67598;DHT22;62026;39.230;9.122;2023-03-23T00:34:56;14.50;66.30
67598;DHT22;62026;39.230;9.122;2023-03-23T00:37:26;14.50;66.20
67598;DHT22;62026;39.230;9.122;2023-03-23T00:39:52;14.50;66.20
67598;DHT22;62026;39.230;9.122;2023-03-23T00:42:23;14.50;66.20
67598;DHT22;62026;39.230;9.122;2023-03-23T00:44:50;14.40;66.10
67598;DHT22;62026;39.230;9.122;2023-03-23T00:47:16;14.40;66.10
67598;DHT22;62026;39.230;9.122;2023-03-23T00:49:43;14.40;65.90
67598;DHT22;62026;39.230;9.122;2023-03-23T00:52:09;14.40;65.90
67598;DHT22;62026;39.230;9.122;2023-03-23T00:54:36;14.40;66.00
67598;DHT22;62026;39.230;9.122;2023-03-23T00:57:04;14.40;65.80
67598;DHT22;62026;39.230;9.122;2023-03-23T00:59:31;14.40;65.70
67598;DHT22;62026;39.230;9.122;2023-03-23T01:01:57;14.40;65.90
67598;DHT22;62026;39.230;9.122;2023-03-23T01:04:23;14.40;66.10
67598;DHT22;62026;39.230;9.122;2023-03-23T01:06:50;14.40;66.10
67598;DHT22;62026;39.230;9.122;2023-03-23T01:09:19;14.40;66.00
67598;DHT22;62026;39.230;9.122;2023-03-23T01:11:49;14.40;66.10
67598;DHT22;62026;39.230;9.122;2023-03-23T01:14:18;14.30;66.10
67598;DHT22;62026;39.230;9.122;2023-03-23T01:16:47;14.30;66.00
67598;DHT22;62026;39.230;9.122;2023-03-23T01:19:14;14.30;66.00
67598;DHT22;62026;39.230;9.122;2023-03-23T01:21:41;14.30;65.90
67598;DHT22;62026;39.230;9.122;2023-03-23T01:24:07;14.20;66.00
67598;DHT22;62026;39.230;9.122;2023-03-23T01:26:34;14.30;65.90
67598;DHT22;62026;39.230;9.122;2023-03-23T01:29:00;14.30;65.80
67598;DHT22;62026;39.230;9.122;2023-03-23T01:31:26;14.20;65.80
67598;DHT22;62026;39.230;9.122;2023-03-23T01:33:52;14.20;65.80
67598;DHT22;62026;39.230;9.122;2023-03-23T01:36:23;14.20;65.70
67598;DHT22;62026;39.230;9.122;2023-03-23T01:38:52;14.20;65.60
67598;DHT22;62026;39.230;9.122;2023-03-23T01:41:19;14.20;65.60
67598;DHT22;62026;39.230;9.122;2023-03-23T01:46:35;14.20;65.30
67598;DHT22;62026;39.230;9.122;2023-03-23T01:49:11;14.20;65.20
67598;DHT22;62026;39.230;9.122;2023-03-23T01:51:46;14.20;65.30
67598;DHT22;62026;39.230;9.122;2023-03-23T01:54:17;14.10;65.30
67598;DHT22;62026;39.230;9.122;2023-03-23T01:56:52;14.10;65.30
67598;DHT22;62026;39.230;9.122;2023-03-23T01:59:20;14.10;65.20
67598;DHT22;62026;39.230;9.122;2023-03-23T02:01:54;14.20;65.00
67598;DHT22;62026;39.230;9.122;2023-03-23T02:04:22;14.10;65.10
67598;DHT22;62026;39.230;9.122;2023-03-23T02:06:51;14.00;65.30
67598;DHT22;62026;39.230;9.122;2023-03-23T02:09:21;14.00;65.30
67598;DHT22;62026;39.230;9.122;2023-03-23T02:11:49;14.00;65.40
67598;DHT22;62026;39.230;9.122;2023-03-23T02:14:16;14.00;65.30
67598;DHT22;62026;39.230;9.122;2023-03-23T02:16:56;13.90;65.40
67598;DHT22;62026;39.230;9.122;2023-03-23T02:32:10;13.70;65.80
67598;DHT22;62026;39.230;9.122;2023-03-23T02:35:00;13.70;66.10
67598;DHT22;62026;39.230;9.122;2023-03-23T02:37:38;13.60;66.20
67598;DHT22;62026;39.230;9.122;2023-03-23T02:40:14;13.60;66.10
67598;DHT22;62026;39.230;9.122;2023-03-23T02:42:48;13.60;66.00
67598;DHT22;62026;39.230;9.122;2023-03-23T02:45:19;13.50;66.20
67598;DHT22;62026;39.230;9.122;2023-03-23T02:47:49;13.50;66.30
67598;DHT22;62026;39.230;9.122;2023-03-23T02:50:21;13.40;66.30
67598;DHT22;62026;39.230;9.122;2023-03-23T02:52:50;13.40;66.50
67598;DHT22;62026;39.230;9.122;2023-03-23T02:55:19;13.30;66.70
67598;DHT22;62026;39.230;9.122;2023-03-23T02:57:52;13.30;67.10
67598;DHT22;62026;39.230;9.122;2023-03-23T03:00:19;13.30;67.10
67598;DHT22;62026;39.230;9.122;2023-03-23T03:02:54;13.30;67.20
67598;DHT22;62026;39.230;9.122;2023-03-23T03:11:18;13.20;67.50
67598;DHT22;62026;39.230;9.122;2023-03-23T03:14:06;13.20;67.20
67598;DHT22;62026;39.230;9.122;2023-03-23T03:16:57;13.20;67.30
67598;DHT22;62026;39.230;9.122;2023-03-23T03:19:47;13.20;67.40
67598;DHT22;62026;39.230;9.122;2023-03-23T03:22:17;13.20;67.40
67598;DHT22;62026;39.230;9.122;2023-03-23T03:24:47;13.20;67.60
67598;DHT22;62026;39.230;9.122;2023-03-23T03:27:17;13.20;67.70
67598;DHT22;62026;39.230;9.122;2023-03-23T03:29:55;13.10;67.70
67598;DHT22;62026;39.230;9.122;2023-03-23T03:32:30;13.10;67.90
67598;DHT22;62026;39.230;9.122;2023-03-23T03:35:02;13.10;68.00
67598;DHT22;62026;39.230;9.122;2023-03-23T03:37:37;13.10;67.90
67598;DHT22;62026;39.230;9.122;2023-03-23T03:40:17;13.10;67.70
67598;DHT22;62026;39.230;9.122;2023-03-23T03:42:45;13.10;67.50
67598;DHT22;62026;39.230;9.122;2023-03-23T03:45:17;13.10;67.60
67598;DHT22;62026;39.230;9.122;2023-03-23T03:47:44;13.10;67.50
67598;DHT22;62026;39.230;9.122;2023-03-23T03:50:10;13.10;67.70
67598;DHT22;62026;39.230;9.122;2023-03-23T03:52:37;13.00;67.80
67598;DHT22;62026;39.230;9.122;2023-03-23T03:55:06;13.00;67.90
67598;DHT22;62026;39.230;9.122;2023-03-23T03:57:34;13.00;67.90
67598;DHT22;62026;39.230;9.122;2023-03-23T04:00:04;13.00;67.90
67598;DHT22;62026;39.230;9.122;2023-03-23T04:02:50;13.00;67.80
67598;DHT22;62026;39.230;9.122;2023-03-23T04:05:28;13.00;67.80
67598;DHT22;62026;39.230;9.122;2023-03-23T04:07:55;13.00;67.90
67598;DHT22;62026;39.230;9.122;2023-03-23T04:10:31;13.00;67.90
67598;DHT22;62026;39.230;9.122;2023-03-23T04:12:58;13.00;67.90
67598;DHT22;62026;39.230;9.122;2023-03-23T04:15:56;12.90;67.90
67598;DHT22;62026;39.230;9.122;2023-03-23T04:18:23;12.90;68.00
67598;DHT22;62026;39.230;9.122;2023-03-23T04:20:50;12.90;68.00
67598;DHT22;62026;39.230;9.122;2023-03-23T04:23:19;12.90;67.80
67598;DHT22;62026;39.230;9.122;2023-03-23T04:25:49;12.90;67.70
67598;DHT22;62026;39.230;9.122;2023-03-23T04:28:17;12.90;67.60
67598;DHT22;62026;39.230;9.122;2023-03-23T04:31:04;12.90;67.60
67598;DHT22;62026;39.230;9.122;2023-03-23T04:33:30;12.90;67.80
67598;DHT22;62026;39.230;9.122;2023-03-23T04:36:00;12.80;67.80
67598;DHT22;62026;39.230;9.122;2023-03-23T04:38:35;12.90;67.80
67598;DHT22;62026;39.230;9.122;2023-03-23T04:41:09;12.90;67.70
67598;DHT22;62026;39.230;9.122;2023-03-23T04:43:58;12.80;67.70
67598;DHT22;62026;39.230;9.122;2023-03-23T04:46:34;12.80;67.70
67598;DHT22;62026;39.230;9.122;2023-03-23T04:49:06;12.80;67.90
67598;DHT22;62026;39.230;9.122;2023-03-23T04:51:36;12.80;68.10
67598;DHT22;62026;39.230;9.122;2023-03-23T04:54:19;12.80;68.10
67598;DHT22;62026;39.230;9.122;2023-03-23T04:56:50;12.80;68.10
67598;DHT22;62026;39.230;9.122;2023-03-23T04:59:16;12.80;68.20
67598;DHT22;62026;39.230;9.122;2023-03-23T05:01:53;12.80;68.20
67598;DHT22;62026;39.230;9.122;2023-03-23T05:04:20;12.70;68.10
67598;DHT22;62026;39.230;9.122;2023-03-23T05:07:03;12.80;68.10
67598;DHT22;62026;39.230;9.122;2023-03-23T05:09:32;12.70;68.30
67598;DHT22;62026;39.230;9.122;2023-03-23T05:12:04;12.80;68.40
67598;DHT22;62026;39.230;9.122;2023-03-23T05:14:43;12.80;68.50
67598;DHT22;62026;39.230;9.122;2023-03-23T05:17:13;12.80;68.40
67598;DHT22;62026;39.230;9.122;2023-03-23T05:19:43;12.80;68.40
67598;DHT22;62026;39.230;9.122;2023-03-23T05:22:29;12.80;68.30
67598;DHT22;62026;39.230;9.122;2023-03-23T05:24:59;12.80;68.50
67598;DHT22;62026;39.230;9.122;2023-03-23T05:27:31;12.70;68.40
67598;DHT22;62026;39.230;9.122;2023-03-23T05:30:02;12.80;68.40
67598;DHT22;62026;39.230;9.122;2023-03-23T05:32:30;12.70;68.40
67598;DHT22;62026;39.230;9.122;2023-03-23T05:35:03;12.70;68.60
67598;DHT22;62026;39.230;9.122;2023-03-23T05:37:30;12.70;68.70
67598;DHT22;62026;39.230;9.122;2023-03-23T05:40:07;12.70;69.00
67598;DHT22;62026;39.230;9.122;2023-03-23T05:42:43;12.80;69.10
67598;DHT22;62026;39.230;9.122;2023-03-23T05:45:18;12.80;69.40
67598;DHT22;62026;39.230;9.122;2023-03-23T05:47:47;12.80;70.00
67598;DHT22;62026;39.230;9.122;2023-03-23T05:50:18;12.80;70.30
67598;DHT22;62026;39.230;9.122;2023-03-23T05:52:44;12.80;70.70
67598;DHT22;62026;39.230;9.122;2023-03-23T05:55:13;12.80;71.30
67598;DHT22;62026;39.230;9.122;2023-03-23T05:57:41;12.70;71.70
67598;DHT22;62026;39.230;9.122;2023-03-23T06:00:17;12.80;72.20
67598;DHT22;62026;39.230;9.122;2023-03-23T06:02:56;12.80;72.40
67598;DHT22;62026;39.230;9.122;2023-03-23T06:05:30;12.80;72.60
67598;DHT22;62026;39.230;9.122;2023-03-23T06:07:58;12.80;72.80
67598;DHT22;62026;39.230;9.122;2023-03-23T06:10:25;12.80;73.00
67598;DHT22;62026;39.230;9.122;2023-03-23T06:12:58;12.80;73.20
67598;DHT22;62026;39.230;9.122;2023-03-23T06:15:45;12.80;73.50
67598;DHT22;62026;39.230;9.122;2023-03-23T06:18:21;12.80;73.70
67598;DHT22;62026;39.230;9.122;2023-03-23T06:21:10;12.80;73.90
67598;DHT22;62026;39.230;9.122;2023-03-23T06:23:50;12.80;73.90
67598;DHT22;62026;39.230;9.122;2023-03-23T06:26:19;12.80;73.90
67598;DHT22;62026;39.230;9.122;2023-03-23T06:28:55;12.80;73.80
67598;DHT22;62026;39.230;9.122;2023-03-23T06:31:21;12.80;73.70
67598;DHT22;62026;39.230;9.122;2023-03-23T06:33:48;12.80;73.70
67598;DHT22;62026;39.230;9.122;2023-03-23T06:36:37;12.80;73.90
67598;DHT22;62026;39.230;9.122;2023-03-23T06:39:13;12.80;73.80
67598;DHT22;62026;39.230;9.122;2023-03-23T06:42:02;12.90;74.10
67598;DHT22;62026;39.230;9.122;2023-03-23T06:44:33;12.90;74.40
67598;DHT22;62026;39.230;9.122;2023-03-23T06:46:59;12.90;74.70
67598;DHT22;62026;39.230;9.122;2023-03-23T06:49:29;12.90;74.70
67598;DHT22;62026;39.230;9.122;2023-03-23T06:52:03;12.90;75.00
67598;DHT22;62026;39.230;9.122;2023-03-23T06:54:32;12.90;75.00
67598;DHT22;62026;39.230;9.122;2023-03-23T06:57:00;12.90;75.10
67598;DHT22;62026;39.230;9.122;2023-03-23T06:59:26;13.00;75.30
67598;DHT22;62026;39.230;9.122;2023-03-23T07:01:53;13.00;75.40
67598;DHT22;62026;39.230;9.122;2023-03-23T07:04:18;13.00;75.40
67598;DHT22;62026;39.230;9.122;2023-03-23T07:07:02;13.00;75.50
67598;DHT22;62026;39.230;9.122;2023-03-23T07:09:32;13.10;75.30
67598;DHT22;62026;39.230;9.122;2023-03-23T07:11:58;13.10;75.20
67598;DHT22;62026;39.230;9.122;2023-03-23T07:14:32;13.10;75.20
67598;DHT22;62026;39.230;9.122;2023-03-23T07:16:58;13.10;75.20
67598;DHT22;62026;39.230;9.122;2023-03-23T07:19:24;13.10;75.20
67598;DHT22;62026;39.230;9.122;2023-03-23T07:21:50;13.10;75.10
67598;DHT22;62026;39.230;9.122;2023-03-23T07:24:20;13.40;74.70
67598;DHT22;62026;39.230;9.122;2023-03-23T07:39:16;14.00;73.80
67598;DHT22;62026;39.230;9.122;2023-03-23T07:41:43;14.70;71.00
67598;DHT22;62026;39.230;9.122;2023-03-23T07:44:22;15.00;70.10
67598;DHT22;62026;39.230;9.122;2023-03-23T07:46:51;15.40;69.20
67598;DHT22;62026;39.230;9.122;2023-03-23T07:49:26;15.70;68.30
67598;DHT22;62026;39.230;9.122;2023-03-23T07:52:02;15.90;67.60
67598;DHT22;62026;39.230;9.122;2023-03-23T07:54:29;16.10;66.90
67598;DHT22;62026;39.230;9.122;2023-03-23T07:57:03;16.30;66.30
67598;DHT22;62026;39.230;9.122;2023-03-23T07:59:33;16.50;65.70
67598;DHT22;62026;39.230;9.122;2023-03-23T08:01:59;16.80;65.30
67598;DHT22;62026;39.230;9.122;2023-03-23T08:04:45;16.90;64.70
67598;DHT22;62026;39.230;9.122;2023-03-23T08:07:35;17.10;64.20
67598;DHT22;62026;39.230;9.122;2023-03-23T08:10:17;17.30;63.50
67598;DHT22;62026;39.230;9.122;2023-03-23T08:12:54;17.50;63.10
67598;DHT22;62026;39.230;9.122;2023-03-23T08:15:40;17.70;62.50
67598;DHT22;62026;39.230;9.122;2023-03-23T08:18:24;17.80;62.00
67598;DHT22;62026;39.230;9.122;2023-03-23T08:21:10;18.00;61.80
67598;DHT22;62026;39.230;9.122;2023-03-23T08:24:06;18.10;61.70
67598;DHT22;62026;39.230;9.122;2023-03-23T08:26:44;18.30;61.10
67598;DHT22;62026;39.230;9.122;2023-03-23T08:29:11;18.40;61.00
67598;DHT22;62026;39.230;9.122;2023-03-23T08:31:49;18.90;60.50
67598;DHT22;62026;39.230;9.122;2023-03-23T08:34:29;18.90;59.80
67598;DHT22;62026;39.230;9.122;2023-03-23T08:37:02;18.90;59.90
67598;DHT22;62026;39.230;9.122;2023-03-23T08:39:51;18.90;59.50
67598;DHT22;62026;39.230;9.122;2023-03-23T08:42:43;19.00;59.30
67598;DHT22;62026;39.230;9.122;2023-03-23T08:45:28;19.10;59.00
67598;DHT22;62026;39.230;9.122;2023-03-23T08:48:24;19.20;58.20
67598;DHT22;62026;39.230;9.122;2023-03-23T08:50:56;19.40;57.90
67598;DHT22;62026;39.230;9.122;2023-03-23T08:53:48;19.50;57.80
67598;DHT22;62026;39.230;9.122;2023-03-23T08:56:34;19.60;57.50
67598;DHT22;62026;39.230;9.122;2023-03-23T08:59:10;19.80;56.90
67598;DHT22;62026;39.230;9.122;2023-03-23T09:01:49;19.90;56.30
67598;DHT22;62026;39.230;9.122;2023-03-23T09:04:20;20.20;56.50
67598;DHT22;62026;39.230;9.122;2023-03-23T09:07:09;20.40;55.60
67598;DHT22;62026;39.230;9.122;2023-03-23T09:09:38;20.40;55.40
67598;DHT22;62026;39.230;9.122;2023-03-23T09:12:09;20.90;54.70
67598;DHT22;62026;39.230;9.122;2023-03-23T09:14:37;21.00;53.90
67598;DHT22;62026;39.230;9.122;2023-03-23T09:17:04;20.90;54.20
67598;DHT22;62026;39.230;9.122;2023-03-23T09:19:34;21.00;54.10
67598;DHT22;62026;39.230;9.122;2023-03-23T09:22:04;21.20;53.80
67598;DHT22;62026;39.230;9.122;2023-03-23T09:24:30;21.60;52.80
67598;DHT22;62026;39.230;9.122;2023-03-23T09:26:57;21.60;52.80
67598;DHT22;62026;39.230;9.122;2023-03-23T09:29:25;21.60;53.20
67598;DHT22;62026;39.230;9.122;2023-03-23T09:31:53;21.60;53.40
67598;DHT22;62026;39.230;9.122;2023-03-23T09:34:20;21.70;53.20
67598;DHT22;62026;39.230;9.122;2023-03-23T09:36:46;21.60;53.10
67598;DHT22;62026;39.230;9.122;2023-03-23T09:39:12;21.70;53.00
67598;DHT22;62026;39.230;9.122;2023-03-23T09:41:42;21.70;52.90
67598;DHT22;62026;39.230;9.122;2023-03-23T09:44:30;21.70;52.70
67598;DHT22;62026;39.230;9.122;2023-03-23T09:47:33;21.70;52.30
67598;DHT22;62026;39.230;9.122;2023-03-23T09:55:20;22.00;51.60
67598;DHT22;62026;39.230;9.122;2023-03-23T09:57:59;22.10;51.10
67598;DHT22;62026;39.230;9.122;2023-03-23T10:00:37;22.40;50.40
67598;DHT22;62026;39.230;9.122;2023-03-23T10:03:16;22.80;49.90
67598;DHT22;62026;39.230;9.122;2023-03-23T10:05:52;22.80;49.80
67598;DHT22;62026;39.230;9.122;2023-03-23T10:08:22;22.80;49.60
67598;DHT22;62026;39.230;9.122;2023-03-23T10:16:21;23.00;48.00
67598;DHT22;62026;39.230;9.122;2023-03-23T10:19:20;22.90;48.40
67598;DHT22;62026;39.230;9.122;2023-03-23T10:22:09;23.00;46.30
67598;DHT22;62026;39.230;9.122;2023-03-23T10:24:48;23.00;46.10
67598;DHT22;62026;39.230;9.122;2023-03-23T10:31:03;23.30;46.20
67598;DHT22;62026;39.230;9.122;2023-03-23T10:36:10;23.30;45.60
67598;DHT22;62026;39.230;9.122;2023-03-23T10:41:42;23.20;45.70
67598;DHT22;62026;39.230;9.122;2023-03-23T10:44:23;23.20;46.10
67598;DHT22;62026;39.230;9.122;2023-03-23T10:47:00;23.40;44.90
67598;DHT22;62026;39.230;9.122;2023-03-23T10:49:40;23.30;44.70
67598;DHT22;62026;39.230;9.122;2023-03-23T10:55:13;22.90;45.00
67598;DHT22;62026;39.230;9.122;2023-03-23T10:57:46;22.70;45.60
67598;DHT22;62026;39.230;9.122;2023-03-23T11:00:25;22.60;45.70
67598;DHT22;62026;39.230;9.122;2023-03-23T11:03:20;22.50;45.80
67598;DHT22;62026;39.230;9.122;2023-03-23T11:05:57;22.30;46.40
67598;DHT22;62026;39.230;9.122;2023-03-23T11:08:34;22.10;46.90
67598;DHT22;62026;39.230;9.122;2023-03-23T11:11:31;22.20;47.20
67598;DHT22;62026;39.230;9.122;2023-03-23T11:14:11;22.10;46.40
67598;DHT22;62026;39.230;9.122;2023-03-23T11:16:53;21.90;46.80
67598;DHT22;62026;39.230;9.122;2023-03-23T11:19:24;21.80;47.30
67598;DHT22;62026;39.230;9.122;2023-03-23T11:24:40;21.80;47.50
67598;DHT22;62026;39.230;9.122;2023-03-23T11:27:08;21.60;47.50
67598;DHT22;62026;39.230;9.122;2023-03-23T11:29:52;21.40;47.50
67598;DHT22;62026;39.230;9.122;2023-03-23T11:32:43;21.30;47.60
67598;DHT22;62026;39.230;9.122;2023-03-23T11:35:27;21.40;47.70
67598;DHT22;62026;39.230;9.122;2023-03-23T11:37:56;21.30;48.00
67598;DHT22;62026;39.230;9.122;2023-03-23T11:40:29;21.20;47.90
67598;DHT22;62026;39.230;9.122;2023-03-23T11:42:59;21.10;48.30
67598;DHT22;62026;39.230;9.122;2023-03-23T11:45:56;21.10;48.40
67598;DHT22;62026;39.230;9.122;2023-03-23T11:52:05;21.00;49.50
67598;DHT22;62026;39.230;9.122;2023-03-23T11:55:00;20.80;49.50
67598;DHT22;62026;39.230;9.122;2023-03-23T11:57:36;20.80;50.20
67598;DHT22;62026;39.230;9.122;2023-03-23T12:00:12;20.80;50.40
67598;DHT22;62026;39.230;9.122;2023-03-23T12:06:08;20.30;50.90
67598;DHT22;62026;39.230;9.122;2023-03-23T12:15:09;19.80;54.30
67598;DHT22;62026;39.230;9.122;2023-03-23T12:18:15;19.70;55.60
67598;DHT22;62026;39.230;9.122;2023-03-23T12:23:18;19.50;57.10
67598;DHT22;62026;39.230;9.122;2023-03-23T12:28:50;19.40;57.80
67598;DHT22;62026;39.230;9.122;2023-03-23T12:31:49;19.20;58.90
67598;DHT22;62026;39.230;9.122;2023-03-23T12:37:49;18.90;59.40
67598;DHT22;62026;39.230;9.122;2023-03-23T12:40:35;18.70;60.00
67598;DHT22;62026;39.230;9.122;2023-03-23T12:48:41;18.50;60.70
67598;DHT22;62026;39.230;9.122;2023-03-23T12:51:27;18.50;60.50
67598;DHT22;62026;39.230;9.122;2023-03-23T12:54:36;18.50;60.50
67598;DHT22;62026;39.230;9.122;2023-03-23T12:57:15;18.20;60.20
67598;DHT22;62026;39.230;9.122;2023-03-23T13:00:03;18.10;61.40
67598;DHT22;62026;39.230;9.122;2023-03-23T13:05:53;18.30;61.10
67598;DHT22;62026;39.230;9.122;2023-03-23T13:08:40;18.20;61.30
67598;DHT22;62026;39.230;9.122;2023-03-23T13:11:31;18.10;61.50
67598;DHT22;62026;39.230;9.122;2023-03-23T13:17:42;17.90;61.40
67598;DHT22;62026;39.230;9.122;2023-03-23T13:20:38;17.80;61.70
67598;DHT22;62026;39.230;9.122;2023-03-23T13:26:17;17.80;61.90
67598;DHT22;62026;39.230;9.122;2023-03-23T13:31:27;17.90;62.10
67598;DHT22;62026;39.230;9.122;2023-03-23T13:34:05;18.00;60.70
67598;DHT22;62026;39.230;9.122;2023-03-23T13:37:04;17.80;60.30
67598;DHT22;62026;39.230;9.122;2023-03-23T13:42:54;18.00;59.50
67598;DHT22;62026;39.230;9.122;2023-03-23T13:53:24;18.20;59.30
67598;DHT22;62026;39.230;9.122;2023-03-23T13:56:34;18.10;59.60
67598;DHT22;62026;39.230;9.122;2023-03-23T14:02:26;18.00;59.70
67598;DHT22;62026;39.230;9.122;2023-03-23T14:04:56;17.90;60.20
67598;DHT22;62026;39.230;9.122;2023-03-23T14:07:23;17.90;60.80
67598;DHT22;62026;39.230;9.122;2023-03-23T14:09:50;18.00;60.90
67598;DHT22;62026;39.230;9.122;2023-03-23T14:12:26;18.10;60.60
67598;DHT22;62026;39.230;9.122;2023-03-23T14:15:01;18.00;59.30
67598;DHT22;62026;39.230;9.122;2023-03-23T14:17:39;17.90;60.10
67598;DHT22;62026;39.230;9.122;2023-03-23T14:20:23;18.00;59.50
67598;DHT22;62026;39.230;9.122;2023-03-23T14:22:59;18.10;59.70
67598;DHT22;62026;39.230;9.122;2023-03-23T14:25:30;18.10;59.30
67598;DHT22;62026;39.230;9.122;2023-03-23T14:27:58;18.10;58.70
67598;DHT22;62026;39.230;9.122;2023-03-23T14:30:27;18.00;58.40
67598;DHT22;62026;39.230;9.122;2023-03-23T14:33:05;18.00;58.10
67598;DHT22;62026;39.230;9.122;2023-03-23T14:35:36;18.00;57.30
67598;DHT22;62026;39.230;9.122;2023-03-23T14:38:12;18.00;57.30
67598;DHT22;62026;39.230;9.122;2023-03-23T14:40:42;18.00;56.50
67598;DHT22;62026;39.230;9.122;2023-03-23T14:43:10;18.10;55.90
67598;DHT22;62026;39.230;9.122;2023-03-23T14:45:41;18.10;55.40
67598;DHT22;62026;39.230;9.122;2023-03-23T14:48:10;18.10;55.40
67598;DHT22;62026;39.230;9.122;2023-03-23T14:50:51;18.10;55.70
67598;DHT22;62026;39.230;9.122;2023-03-23T14:53:30;18.20;55.90
67598;DHT22;62026;39.230;9.122;2023-03-23T14:56:23;18.20;55.90
67598;DHT22;62026;39.230;9.122;2023-03-23T14:58:53;18.20;55.80
67598;DHT22;62026;39.230;9.122;2023-03-23T15:01:26;18.20;56.40
67598;DHT22;62026;39.230;9.122;2023-03-23T15:06:40;18.20;57.00
67598;DHT22;62026;39.230;9.122;2023-03-23T15:09:20;18.10;57.70
67598;DHT22;62026;39.230;9.122;2023-03-23T15:11:58;18.10;58.40
67598;DHT22;62026;39.230;9.122;2023-03-23T15:14:44;18.10;58.70
67598;DHT22;62026;39.230;9.122;2023-03-23T15:17:22;18.10;59.40
67598;DHT22;62026;39.230;9.122;2023-03-23T15:19:51;18.00;59.20
67598;DHT22;62026;39.230;9.122;2023-03-23T15:22:22;17.90;59.40
67598;DHT22;62026;39.230;9.122;2023-03-23T15:25:09;17.90;59.90
67598;DHT22;62026;39.230;9.122;2023-03-23T15:27:43;17.80;59.80
67598;DHT22;62026;39.230;9.122;2023-03-23T15:30:33;17.80;60.10
67598;DHT22;62026;39.230;9.122;2023-03-23T15:33:11;17.80;60.00
67598;DHT22;62026;39.230;9.122;2023-03-23T15:35:41;17.80;60.10
67598;DHT22;62026;39.230;9.122;2023-03-23T15:38:29;17.90;60.30
67598;DHT22;62026;39.230;9.122;2023-03-23T15:41:00;17.90;59.90
67598;DHT22;62026;39.230;9.122;2023-03-23T15:43:36;17.90;59.90
67598;DHT22;62026;39.230;9.122;2023-03-23T15:49:08;17.90;58.70
67598;DHT22;62026;39.230;9.122;2023-03-23T15:51:36;17.80;58.90
67598;DHT22;62026;39.230;9.122;2023-03-23T15:54:03;17.80;59.10
67598;DHT22;62026;39.230;9.122;2023-03-23T15:56:34;17.80;59.10
67598;DHT22;62026;39.230;9.122;2023-03-23T15:59:00;17.90;59.50
67598;DHT22;62026;39.230;9.122;2023-03-23T16:01:28;17.90;59.60
67598;DHT22;62026;39.230;9.122;2023-03-23T16:04:02;17.90;59.70
67598;DHT22;62026;39.230;9.122;2023-03-23T16:06:33;17.80;60.00
67598;DHT22;62026;39.230;9.122;2023-03-23T16:09:01;17.80;59.50
67598;DHT22;62026;39.230;9.122;2023-03-23T16:11:29;17.80;59.30
67598;DHT22;62026;39.230;9.122;2023-03-23T16:13:57;17.80;59.10
67598;DHT22;62026;39.230;9.122;2023-03-23T16:16:28;17.70;59.50
67598;DHT22;62026;39.230;9.122;2023-03-23T16:19:01;17.70;61.70
67598;DHT22;62026;39.230;9.122;2023-03-23T16:21:27;17.60;62.20
67598;DHT22;62026;39.230;9.122;2023-03-23T16:23:54;17.60;62.70
67598;DHT22;62026;39.230;9.122;2023-03-23T16:26:21;17.50;62.60
67598;DHT22;62026;39.230;9.122;2023-03-23T16:28:47;17.50;61.70
67598;DHT22;62026;39.230;9.122;2023-03-23T16:31:13;17.50;64.10
67598;DHT22;62026;39.230;9.122;2023-03-23T16:33:39;17.40;65.30
67598;DHT22;62026;39.230;9.122;2023-03-23T16:36:05;17.40;66.50
67598;DHT22;62026;39.230;9.122;2023-03-23T16:38:31;17.40;66.80
67598;DHT22;62026;39.230;9.122;2023-03-23T16:40:58;17.30;66.70
67598;DHT22;62026;39.230;9.122;2023-03-23T16:43:24;17.30;67.50
67598;DHT22;62026;39.230;9.122;2023-03-23T16:45:54;17.20;67.80
67598;DHT22;62026;39.230;9.122;2023-03-23T16:48:22;17.20;68.10
67598;DHT22;62026;39.230;9.122;2023-03-23T16:50:48;17.10;68.40
67598;DHT22;62026;39.230;9.122;2023-03-23T16:53:16;17.00;68.90
67598;DHT22;62026;39.230;9.122;2023-03-23T16:55:42;17.00;68.90
67598;DHT22;62026;39.230;9.122;2023-03-23T16:58:12;17.00;68.90
67598;DHT22;62026;39.230;9.122;2023-03-23T17:00:40;17.00;68.80
67598;DHT22;62026;39.230;9.122;2023-03-23T17:03:07;16.90;69.20
67598;DHT22;62026;39.230;9.122;2023-03-23T17:05:35;16.90;69.40
67598;DHT22;62026;39.230;9.122;2023-03-23T17:08:02;16.80;69.40
67598;DHT22;62026;39.230;9.122;2023-03-23T17:10:29;16.80;69.40
67598;DHT22;62026;39.230;9.122;2023-03-23T17:12:56;16.70;69.50
67598;DHT22;62026;39.230;9.122;2023-03-23T17:15:22;16.70;69.90
67598;DHT22;62026;39.230;9.122;2023-03-23T17:17:50;16.60;70.20
67598;DHT22;62026;39.230;9.122;2023-03-23T17:20:17;16.60;70.60
67598;DHT22;62026;39.230;9.122;2023-03-23T17:22:43;16.60;70.50
67598;DHT22;62026;39.230;9.122;2023-03-23T17:25:09;16.50;70.50
67598;DHT22;62026;39.230;9.122;2023-03-23T17:27:36;16.50;70.80
67598;DHT22;62026;39.230;9.122;2023-03-23T17:30:07;16.40;71.00
67598;DHT22;62026;39.230;9.122;2023-03-23T17:32:34;16.40;71.20
67598;DHT22;62026;39.230;9.122;2023-03-23T17:35:01;16.40;71.40
67598;DHT22;62026;39.230;9.122;2023-03-23T17:37:30;16.40;71.50
67598;DHT22;62026;39.230;9.122;2023-03-23T17:39:56;16.30;71.70
67598;DHT22;62026;39.230;9.122;2023-03-23T17:42:22;16.40;71.80
67598;DHT22;62026;39.230;9.122;2023-03-23T17:44:48;16.30;71.80
67598;DHT22;62026;39.230;9.122;2023-03-23T17:47:14;16.20;72.00
67598;DHT22;62026;39.230;9.122;2023-03-23T17:49:41;16.20;72.30
67598;DHT22;62026;39.230;9.122;2023-03-23T17:52:07;16.20;71.90
67598;DHT22;62026;39.230;9.122;2023-03-23T17:54:33;16.20;72.20
67598;DHT22;62026;39.230;9.122;2023-03-23T17:56:59;16.10;72.10
67598;DHT22;62026;39.230;9.122;2023-03-23T17:59:29;16.10;72.30
67598;DHT22;62026;39.230;9.122;2023-03-23T18:01:56;16.20;72.40
67598;DHT22;62026;39.230;9.122;2023-03-23T18:04:22;16.10;72.60
67598;DHT22;62026;39.230;9.122;2023-03-23T18:06:49;16.20;72.60
67598;DHT22;62026;39.230;9.122;2023-03-23T18:09:15;16.10;72.50